SBI283 UUEE-URKK
Flight info
| Callsign | SBI283 |
|---|---|
| Flight time | N/A |
| Altitude | 32000 |
| Route | TOGMO3H TOGMO M56 ABAGI B105 WGD G481 LARIN G487 BINOL B549 AG B950 SIBAN SIBAN6R |
| Aircraft | B38M/M-SDE1FGHILORVWXY/HB1 |
Departure
| Time | 2026-05-01 07:30 |
|---|---|
| Airport | Sheremetyevo International Airport (UUEE) |
Arrival
| Time | N/A |
|---|---|
| Airport | Krasnodar Pashkovsky International Airport (URKK) |
| Time | Latitude | Longitude | Altitude | Speed | Heading |
|---|---|---|---|---|---|
| 2026-05-01 07:23 | 55.97269 | 37.44245 | 631 ft | 0 kts | 47° |
| 2026-05-01 07:27 | 55.97271 | 37.44248 | 631 ft | 1 kts | 47° |
| 2026-05-01 07:28 | 55.97278 | 37.44263 | 642 ft | 4 kts | 47° |
| 2026-05-01 07:28 | 55.97303 | 37.44305 | 639 ft | 6 kts | 35° |
| 2026-05-01 07:28 | 55.97346 | 37.44357 | 640 ft | 9 kts | 33° |
| 2026-05-01 07:28 | 55.97410 | 37.44405 | 635 ft | 8 kts | 13° |
| 2026-05-01 07:29 | 55.97471 | 37.44403 | 639 ft | 9 kts | 348° |
| 2026-05-01 07:29 | 55.97516 | 37.44380 | 636 ft | 10 kts | 338° |
| 2026-05-01 07:29 | 55.97550 | 37.44274 | 638 ft | 11 kts | 262° |
| 2026-05-01 07:29 | 55.97534 | 37.44142 | 635 ft | 11 kts | 256° |
| 2026-05-01 07:30 | 55.97502 | 37.43927 | 640 ft | 42 kts | 255° |
| 2026-05-01 07:30 | 55.97358 | 37.42943 | 643 ft | 117 kts | 254° |
| 2026-05-01 07:30 | 55.97097 | 37.41253 | 814 ft | 156 kts | 254° |
| 2026-05-01 07:30 | 55.96796 | 37.39298 | 1418 ft | 168 kts | 255° |
| 2026-05-01 07:31 | 55.96484 | 37.37322 | 2179 ft | 172 kts | 256° |
| 2026-05-01 07:31 | 55.95558 | 37.30909 | 3150 ft | 192 kts | 256° |
| 2026-05-01 07:32 | 55.94811 | 37.25946 | 3614 ft | 225 kts | 256° |
| 2026-05-01 07:32 | 55.94389 | 37.23143 | 4024 ft | 242 kts | 256° |
| 2026-05-01 07:33 | 55.93477 | 37.17103 | 5162 ft | 259 kts | 256° |
| 2026-05-01 07:33 | 55.93004 | 37.13982 | 5831 ft | 263 kts | 257° |
| 2026-05-01 07:33 | 55.92041 | 37.07640 | 7153 ft | 270 kts | 257° |
| 2026-05-01 07:34 | 55.91620 | 37.04370 | 7781 ft | 271 kts | 269° |
| 2026-05-01 07:34 | 55.92940 | 36.98361 | 9082 ft | 267 kts | 320° |
| 2026-05-01 07:34 | 55.94423 | 36.96362 | 9724 ft | 269 kts | 327° |
| 2026-05-01 07:35 | 55.96017 | 36.94414 | 10002 ft | 290 kts | 328° |
| 2026-05-01 07:35 | 55.97849 | 36.92658 | 10014 ft | 308 kts | 345° |
| 2026-05-01 07:35 | 55.99959 | 36.92264 | 10141 ft | 307 kts | 7° |
| 2026-05-01 07:35 | 56.02003 | 36.93350 | 10710 ft | 311 kts | 27° |
| 2026-05-01 07:36 | 56.03862 | 36.95386 | 11299 ft | 315 kts | 32° |
| 2026-05-01 07:36 | 56.05695 | 36.97567 | 11923 ft | 318 kts | 33° |
| 2026-05-01 07:36 | 56.07541 | 36.99769 | 12579 ft | 320 kts | 33° |
| 2026-05-01 07:36 | 56.09412 | 37.01950 | 13241 ft | 322 kts | 33° |
| 2026-05-01 07:37 | 56.12280 | 37.08061 | 14361 ft | 331 kts | 65° |
| 2026-05-01 07:37 | 56.12941 | 37.12031 | 14938 ft | 333 kts | 72° |
| 2026-05-01 07:37 | 56.13500 | 37.16007 | 15183 ft | 333 kts | 72° |
| 2026-05-01 07:38 | 56.14051 | 37.20021 | 15177 ft | 330 kts | 72° |
| 2026-05-01 07:38 | 56.14552 | 37.24038 | 15176 ft | 332 kts | 79° |
| 2026-05-01 07:38 | 56.13737 | 37.32291 | 15201 ft | 350 kts | 113° |
| 2026-05-01 07:39 | 56.12295 | 37.35866 | 15454 ft | 361 kts | 130° |
| 2026-05-01 07:39 | 56.10265 | 37.38590 | 16041 ft | 373 kts | 147° |
| 2026-05-01 07:39 | 56.05500 | 37.42641 | 17133 ft | 382 kts | 150° |
| 2026-05-01 07:40 | 56.03069 | 37.44629 | 17652 ft | 386 kts | 149° |
| 2026-05-01 07:40 | 56.00630 | 37.46687 | 18169 ft | 389 kts | 149° |
| 2026-05-01 07:40 | 55.98190 | 37.48815 | 18660 ft | 390 kts | 144° |
| 2026-05-01 07:40 | 55.96059 | 37.51691 | 19092 ft | 381 kts | 128° |
| 2026-05-01 07:41 | 55.94440 | 37.55306 | 19528 ft | 373 kts | 114° |
| 2026-05-01 07:41 | 55.93369 | 37.59453 | 19988 ft | 365 kts | 101° |
| 2026-05-01 07:41 | 55.92319 | 37.68232 | 20923 ft | 364 kts | 95° |
| 2026-05-01 07:42 | 55.91792 | 37.72677 | 21325 ft | 371 kts | 100° |
| 2026-05-01 07:42 | 55.90792 | 37.76984 | 21739 ft | 382 kts | 111° |
| 2026-05-01 07:42 | 55.89495 | 37.81159 | 22152 ft | 386 kts | 112° |
| 2026-05-01 07:42 | 55.88178 | 37.85338 | 22562 ft | 388 kts | 112° |
| 2026-05-01 07:43 | 55.86854 | 37.89547 | 22982 ft | 391 kts | 113° |
| 2026-05-01 07:43 | 55.85176 | 37.93457 | 23382 ft | 406 kts | 128° |
| 2026-05-01 07:43 | 55.80201 | 37.98758 | 24104 ft | 436 kts | 158° |
| 2026-05-01 07:44 | 55.74026 | 37.98896 | 24736 ft | 459 kts | 193° |
| 2026-05-01 07:44 | 55.68477 | 37.93377 | 25352 ft | 467 kts | 215° |
| 2026-05-01 07:45 | 55.65737 | 37.90265 | 25639 ft | 469 kts | 208° |
| 2026-05-01 07:45 | 55.62705 | 37.88265 | 26067 ft | 464 kts | 188° |
| 2026-05-01 07:45 | 55.59524 | 37.87916 | 26530 ft | 455 kts | 173° |
| 2026-05-01 07:45 | 55.56366 | 37.88160 | 26973 ft | 453 kts | 172° |
| 2026-05-01 07:46 | 55.53233 | 37.88642 | 27398 ft | 451 kts | 169° |
| 2026-05-01 07:46 | 55.50118 | 37.89310 | 27809 ft | 450 kts | 169° |
| 2026-05-01 07:46 | 55.43858 | 37.90325 | 28613 ft | 452 kts | 171° |
| 2026-05-01 07:47 | 55.40756 | 37.91024 | 29013 ft | 446 kts | 161° |
| 2026-05-01 07:47 | 55.37842 | 37.92753 | 29420 ft | 437 kts | 149° |
| 2026-05-01 07:47 | 55.35266 | 37.95345 | 29813 ft | 430 kts | 140° |
| 2026-05-01 07:47 | 55.32781 | 37.98280 | 30210 ft | 430 kts | 139° |
| 2026-05-01 07:48 | 55.27813 | 38.04151 | 30909 ft | 430 kts | 141° |
| 2026-05-01 07:48 | 55.25322 | 38.07061 | 31259 ft | 430 kts | 142° |
| 2026-05-01 07:48 | 55.22837 | 38.09969 | 31615 ft | 429 kts | 142° |
| 2026-05-01 07:49 | 55.20357 | 38.12878 | 31984 ft | 429 kts | 142° |
| 2026-05-01 07:49 | 55.15436 | 38.18621 | 32199 ft | 421 kts | 142° |
| 2026-05-01 07:50 | 55.10618 | 38.24231 | 32204 ft | 417 kts | 142° |
| 2026-05-01 07:50 | 55.03385 | 38.32621 | 32210 ft | 415 kts | 143° |
| 2026-05-01 07:51 | 54.98583 | 38.38170 | 32207 ft | 414 kts | 143° |
| 2026-05-01 07:52 | 54.91372 | 38.46473 | 32198 ft | 414 kts | 143° |
| 2026-05-01 07:52 | 54.86560 | 38.51993 | 32198 ft | 414 kts | 143° |
| 2026-05-01 07:53 | 54.79370 | 38.60212 | 32217 ft | 414 kts | 143° |
| 2026-05-01 07:53 | 54.74500 | 38.65545 | 32213 ft | 414 kts | 146° |
| 2026-05-01 07:55 | 54.62165 | 38.78409 | 32213 ft | 414 kts | 146° |
| 2026-05-01 07:56 | 54.59166 | 38.81535 | 32211 ft | 414 kts | 146° |
| 2026-05-01 07:59 | 54.55199 | 38.85657 | 32210 ft | 414 kts | 146° |
| 2026-05-01 08:00 | 54.40487 | 39.01142 | 32222 ft | 411 kts | 135° |
| 2026-05-01 08:01 | 54.36179 | 39.13535 | 32207 ft | 406 kts | 109° |
| 2026-05-01 08:01 | 54.35124 | 39.18029 | 32209 ft | 406 kts | 109° |
| 2026-05-01 08:02 | 54.31884 | 39.31440 | 32209 ft | 408 kts | 110° |
| 2026-05-01 08:03 | 54.28615 | 39.44918 | 32210 ft | 408 kts | 110° |
| 2026-05-01 08:03 | 54.25330 | 39.58347 | 32211 ft | 408 kts | 110° |
| 2026-05-01 08:04 | 54.20929 | 39.76215 | 32209 ft | 408 kts | 110° |
| 2026-05-01 08:05 | 54.17622 | 39.89549 | 32209 ft | 408 kts | 110° |
| 2026-05-01 08:06 | 54.14291 | 40.02897 | 32207 ft | 408 kts | 111° |
| 2026-05-01 08:07 | 54.10363 | 40.20974 | 32207 ft | 407 kts | 104° |
| 2026-05-01 08:08 | 54.07978 | 40.34824 | 32210 ft | 407 kts | 105° |
| 2026-05-01 08:09 | 54.04745 | 40.53309 | 32207 ft | 407 kts | 105° |
| 2026-05-01 08:09 | 54.03117 | 40.62535 | 32205 ft | 407 kts | 105° |
| 2026-05-01 08:10 | 53.99828 | 40.81044 | 32209 ft | 407 kts | 106° |
| 2026-05-01 08:11 | 53.98079 | 40.90813 | 32210 ft | 407 kts | 105° |
| 2026-05-01 08:12 | 53.96938 | 40.97145 | 32210 ft | 406 kts | 105° |
| 2026-05-01 08:13 | 53.95255 | 41.07070 | 32204 ft | 407 kts | 103° |
| 2026-05-01 08:14 | 53.93674 | 41.16291 | 32209 ft | 407 kts | 104° |
| 2026-05-01 08:14 | 53.92183 | 41.25549 | 32201 ft | 408 kts | 105° |
| 2026-05-01 08:15 | 53.89866 | 41.39459 | 32200 ft | 408 kts | 104° |
| 2026-05-01 08:16 | 53.88329 | 41.48735 | 32199 ft | 408 kts | 105° |
| 2026-05-01 08:16 | 53.87037 | 41.56423 | 32201 ft | 408 kts | 105° |
| 2026-05-01 08:17 | 53.85222 | 41.67216 | 32198 ft | 407 kts | 105° |
| 2026-05-01 08:17 | 53.83921 | 41.74901 | 32198 ft | 408 kts | 106° |
| 2026-05-01 08:18 | 53.82343 | 41.84139 | 32195 ft | 409 kts | 106° |
| 2026-05-01 08:19 | 53.79166 | 42.02590 | 32187 ft | 410 kts | 106° |
| 2026-05-01 08:19 | 53.77561 | 42.11834 | 32187 ft | 409 kts | 106° |
| 2026-05-01 08:20 | 53.75951 | 42.21067 | 32186 ft | 409 kts | 107° |
| 2026-05-01 08:20 | 53.74346 | 42.30221 | 32176 ft | 410 kts | 107° |
| 2026-05-01 08:21 | 53.72717 | 42.39462 | 32172 ft | 410 kts | 107° |
| 2026-05-01 08:21 | 53.71080 | 42.48703 | 32175 ft | 410 kts | 108° |
| 2026-05-01 08:22 | 53.69441 | 42.57915 | 32165 ft | 411 kts | 108° |
| 2026-05-01 08:22 | 53.67588 | 42.66926 | 32190 ft | 407 kts | 124° |
| 2026-05-01 08:22 | 53.65663 | 42.70393 | 32202 ft | 406 kts | 148° |
| 2026-05-01 08:23 | 53.63138 | 42.72466 | 32179 ft | 404 kts | 163° |
| 2026-05-01 08:23 | 53.57739 | 42.75024 | 32178 ft | 403 kts | 166° |
| 2026-05-01 08:24 | 53.52511 | 42.78468 | 32171 ft | 405 kts | 155° |
| 2026-05-01 08:24 | 53.47400 | 42.82449 | 32168 ft | 404 kts | 160° |
| 2026-05-01 08:25 | 53.42213 | 42.86007 | 32164 ft | 404 kts | 158° |
| 2026-05-01 08:25 | 53.37064 | 42.89785 | 32165 ft | 404 kts | 159° |
| 2026-05-01 08:26 | 53.31875 | 42.93449 | 32157 ft | 404 kts | 159° |
| 2026-05-01 08:26 | 53.26732 | 42.97134 | 32157 ft | 404 kts | 159° |
| 2026-05-01 08:27 | 53.21560 | 43.00803 | 32150 ft | 404 kts | 159° |
| 2026-05-01 08:27 | 53.16392 | 43.04469 | 32151 ft | 404 kts | 159° |
| 2026-05-01 08:28 | 53.11254 | 43.08278 | 32151 ft | 404 kts | 159° |
| 2026-05-01 08:28 | 53.06093 | 43.12000 | 32138 ft | 404 kts | 159° |
| 2026-05-01 08:29 | 53.01008 | 43.15828 | 32142 ft | 404 kts | 159° |
| 2026-05-01 08:29 | 52.96025 | 43.19497 | 32140 ft | 404 kts | 159° |
| 2026-05-01 08:32 | 52.93217 | 43.21573 | 32139 ft | 404 kts | 159° |
| 2026-05-01 08:33 | 52.88114 | 43.25345 | 32133 ft | 404 kts | 159° |
| 2026-05-01 08:33 | 52.82976 | 43.29120 | 32134 ft | 404 kts | 159° |
| 2026-05-01 08:34 | 52.77839 | 43.32892 | 32138 ft | 404 kts | 160° |
| 2026-05-01 08:34 | 52.72692 | 43.36658 | 32138 ft | 404 kts | 160° |
| 2026-05-01 08:35 | 52.67557 | 43.40407 | 32126 ft | 403 kts | 160° |
| 2026-05-01 08:35 | 52.62457 | 43.44120 | 32127 ft | 403 kts | 160° |
| 2026-05-01 08:36 | 52.57311 | 43.47858 | 32131 ft | 403 kts | 160° |
| 2026-05-01 08:36 | 52.52175 | 43.51578 | 32131 ft | 403 kts | 160° |
| 2026-05-01 08:37 | 52.47033 | 43.55294 | 32122 ft | 403 kts | 160° |
| 2026-05-01 08:37 | 52.41906 | 43.58988 | 32127 ft | 403 kts | 160° |
| 2026-05-01 08:38 | 52.36794 | 43.62663 | 32126 ft | 403 kts | 160° |
| 2026-05-01 08:38 | 52.31660 | 43.66345 | 32114 ft | 403 kts | 160° |
| 2026-05-01 08:39 | 52.26519 | 43.70021 | 32127 ft | 403 kts | 161° |